sensor_id;sensor_type;location;lat;lon;timestamp;temperature;humidity
20288;DHT22;10303;51.960;8.372;2023-08-31T00:00:44;16.80;99.90
20288;DHT22;10303;51.960;8.372;2023-08-31T00:03:11;16.80;99.90
20288;DHT22;10303;51.960;8.372;2023-08-31T00:05:41;16.70;99.90
20288;DHT22;10303;51.960;8.372;2023-08-31T00:08:09;16.70;99.90
20288;DHT22;10303;51.960;8.372;2023-08-31T00:10:37;16.70;99.90
20288;DHT22;10303;51.960;8.372;2023-08-31T00:13:04;16.60;99.90
20288;DHT22;10303;51.960;8.372;2023-08-31T00:15:34;16.70;99.90
20288;DHT22;10303;51.960;8.372;2023-08-31T00:18:02;16.60;99.90
20288;DHT22;10303;51.960;8.372;2023-08-31T00:20:32;16.60;99.90
20288;DHT22;10303;51.960;8.372;2023-08-31T00:22:59;16.60;99.90
20288;DHT22;10303;51.960;8.372;2023-08-31T00:25:26;16.50;99.90
20288;DHT22;10303;51.960;8.372;2023-08-31T00:27:52;16.50;99.90
20288;DHT22;10303;51.960;8.372;2023-08-31T00:30:20;16.50;99.90
20288;DHT22;10303;51.960;8.372;2023-08-31T00:32:46;16.50;99.90
20288;DHT22;10303;51.960;8.372;2023-08-31T00:35:13;16.50;99.90
20288;DHT22;10303;51.960;8.372;2023-08-31T00:37:39;16.50;99.90
20288;DHT22;10303;51.960;8.372;2023-08-31T00:40:05;16.50;99.90
20288;DHT22;10303;51.960;8.372;2023-08-31T00:42:35;16.50;99.90
20288;DHT22;10303;51.960;8.372;2023-08-31T00:45:03;16.40;99.90
20288;DHT22;10303;51.960;8.372;2023-08-31T00:47:29;16.40;99.90
20288;DHT22;10303;51.960;8.372;2023-08-31T00:49:55;16.40;99.90
20288;DHT22;10303;51.960;8.372;2023-08-31T00:52:21;16.40;99.90
20288;DHT22;10303;51.960;8.372;2023-08-31T00:54:50;16.40;99.90
20288;DHT22;10303;51.960;8.372;2023-08-31T00:57:17;16.30;99.90
20288;DHT22;10303;51.960;8.372;2023-08-31T00:59:43;16.40;99.90
20288;DHT22;10303;51.960;8.372;2023-08-31T01:02:20;16.30;99.90
20288;DHT22;10303;51.960;8.372;2023-08-31T01:11:13;16.30;99.90
20288;DHT22;10303;51.960;8.372;2023-08-31T01:14:14;16.30;99.90
20288;DHT22;10303;51.960;8.372;2023-08-31T01:16:45;16.30;99.90
20288;DHT22;10303;51.960;8.372;2023-08-31T01:19:50;16.30;99.90
20288;DHT22;10303;51.960;8.372;2023-08-31T01:22:29;16.20;99.90
20288;DHT22;10303;51.960;8.372;2023-08-31T01:24:59;16.20;99.90
20288;DHT22;10303;51.960;8.372;2023-08-31T01:27:31;16.20;99.90
20288;DHT22;10303;51.960;8.372;2023-08-31T01:29:57;16.20;99.90
20288;DHT22;10303;51.960;8.372;2023-08-31T01:32:23;16.20;99.90
20288;DHT22;10303;51.960;8.372;2023-08-31T01:34:50;16.20;99.90
20288;DHT22;10303;51.960;8.372;2023-08-31T01:37:34;16.20;99.90
20288;DHT22;10303;51.960;8.372;2023-08-31T01:42:46;16.20;99.90
20288;DHT22;10303;51.960;8.372;2023-08-31T01:45:17;16.20;99.90
20288;DHT22;10303;51.960;8.372;2023-08-31T01:47:48;16.20;99.90
20288;DHT22;10303;51.960;8.372;2023-08-31T01:50:15;16.20;99.90
20288;DHT22;10303;51.960;8.372;2023-08-31T01:52:41;16.20;99.90
20288;DHT22;10303;51.960;8.372;2023-08-31T01:55:07;16.20;99.90
20288;DHT22;10303;51.960;8.372;2023-08-31T01:57:33;16.10;99.90
20288;DHT22;10303;51.960;8.372;2023-08-31T02:00:09;16.20;99.90
20288;DHT22;10303;51.960;8.372;2023-08-31T02:02:43;16.20;99.90
20288;DHT22;10303;51.960;8.372;2023-08-31T02:05:09;16.20;99.90
20288;DHT22;10303;51.960;8.372;2023-08-31T02:07:35;16.20;99.90
20288;DHT22;10303;51.960;8.372;2023-08-31T02:10:02;16.20;99.90
20288;DHT22;10303;51.960;8.372;2023-08-31T02:12:32;16.20;99.90
20288;DHT22;10303;51.960;8.372;2023-08-31T02:14:59;16.20;99.90
20288;DHT22;10303;51.960;8.372;2023-08-31T02:17:28;16.20;99.90
20288;DHT22;10303;51.960;8.372;2023-08-31T02:19:54;16.20;99.90
20288;DHT22;10303;51.960;8.372;2023-08-31T02:22:19;16.20;99.90
20288;DHT22;10303;51.960;8.372;2023-08-31T02:24:47;16.20;99.90
20288;DHT22;10303;51.960;8.372;2023-08-31T02:27:13;16.10;99.90
20288;DHT22;10303;51.960;8.372;2023-08-31T02:29:39;16.20;99.90
20288;DHT22;10303;51.960;8.372;2023-08-31T02:32:05;16.20;99.90
20288;DHT22;10303;51.960;8.372;2023-08-31T02:34:33;16.20;99.90
20288;DHT22;10303;51.960;8.372;2023-08-31T02:36:59;16.20;99.90
20288;DHT22;10303;51.960;8.372;2023-08-31T02:39:27;16.30;99.90
20288;DHT22;10303;51.960;8.372;2023-08-31T02:41:53;16.20;99.90
20288;DHT22;10303;51.960;8.372;2023-08-31T02:44:19;16.20;99.90
20288;DHT22;10303;51.960;8.372;2023-08-31T02:46:46;16.30;99.90
20288;DHT22;10303;51.960;8.372;2023-08-31T02:49:12;16.30;99.90
20288;DHT22;10303;51.960;8.372;2023-08-31T02:51:38;16.20;99.90
20288;DHT22;10303;51.960;8.372;2023-08-31T02:54:05;16.30;99.90
20288;DHT22;10303;51.960;8.372;2023-08-31T02:56:31;16.30;99.90
20288;DHT22;10303;51.960;8.372;2023-08-31T02:58:57;16.20;99.90
20288;DHT22;10303;51.960;8.372;2023-08-31T03:01:23;16.30;99.90
20288;DHT22;10303;51.960;8.372;2023-08-31T03:03:51;16.20;99.90
20288;DHT22;10303;51.960;8.372;2023-08-31T03:06:17;16.20;99.90
20288;DHT22;10303;51.960;8.372;2023-08-31T03:08:43;16.20;99.90
20288;DHT22;10303;51.960;8.372;2023-08-31T03:11:09;16.30;99.90
20288;DHT22;10303;51.960;8.372;2023-08-31T03:13:35;16.20;99.90
20288;DHT22;10303;51.960;8.372;2023-08-31T03:16:02;16.20;99.90
20288;DHT22;10303;51.960;8.372;2023-08-31T03:18:28;16.20;99.90
20288;DHT22;10303;51.960;8.372;2023-08-31T03:20:55;16.20;99.90
20288;DHT22;10303;51.960;8.372;2023-08-31T03:23:24;16.20;99.90
20288;DHT22;10303;51.960;8.372;2023-08-31T03:25:50;16.20;99.90
20288;DHT22;10303;51.960;8.372;2023-08-31T03:28:16;16.20;99.90
20288;DHT22;10303;51.960;8.372;2023-08-31T03:30:42;16.10;99.90
20288;DHT22;10303;51.960;8.372;2023-08-31T03:33:11;16.10;99.90
20288;DHT22;10303;51.960;8.372;2023-08-31T03:35:38;16.10;99.90
20288;DHT22;10303;51.960;8.372;2023-08-31T03:38:04;16.10;99.90
20288;DHT22;10303;51.960;8.372;2023-08-31T03:40:31;16.00;99.90
20288;DHT22;10303;51.960;8.372;2023-08-31T03:42:57;16.00;99.90
20288;DHT22;10303;51.960;8.372;2023-08-31T03:45:23;16.00;99.90
20288;DHT22;10303;51.960;8.372;2023-08-31T03:47:50;16.00;99.90
20288;DHT22;10303;51.960;8.372;2023-08-31T03:50:15;16.00;99.90
20288;DHT22;10303;51.960;8.372;2023-08-31T03:52:41;16.00;99.90
20288;DHT22;10303;51.960;8.372;2023-08-31T03:55:08;16.00;99.90
20288;DHT22;10303;51.960;8.372;2023-08-31T03:57:35;15.90;99.90
20288;DHT22;10303;51.960;8.372;2023-08-31T04:00:11;15.90;99.90
20288;DHT22;10303;51.960;8.372;2023-08-31T04:02:42;15.90;99.90
20288;DHT22;10303;51.960;8.372;2023-08-31T04:05:11;15.90;99.90
20288;DHT22;10303;51.960;8.372;2023-08-31T04:07:43;15.90;99.90
20288;DHT22;10303;51.960;8.372;2023-08-31T04:10:09;15.90;99.90
20288;DHT22;10303;51.960;8.372;2023-08-31T04:12:35;15.80;99.90
20288;DHT22;10303;51.960;8.372;2023-08-31T04:15:01;15.80;99.90
20288;DHT22;10303;51.960;8.372;2023-08-31T04:17:29;15.80;99.90
20288;DHT22;10303;51.960;8.372;2023-08-31T04:19:55;15.80;99.90
20288;DHT22;10303;51.960;8.372;2023-08-31T04:22:22;15.80;99.90
20288;DHT22;10303;51.960;8.372;2023-08-31T04:24:48;15.80;99.90
20288;DHT22;10303;51.960;8.372;2023-08-31T04:27:14;15.70;99.90
20288;DHT22;10303;51.960;8.372;2023-08-31T04:29:40;15.70;99.90
20288;DHT22;10303;51.960;8.372;2023-08-31T04:32:06;15.70;99.90
20288;DHT22;10303;51.960;8.372;2023-08-31T04:34:32;15.70;99.90
20288;DHT22;10303;51.960;8.372;2023-08-31T04:36:58;15.70;99.90
20288;DHT22;10303;51.960;8.372;2023-08-31T04:39:24;15.70;99.90
20288;DHT22;10303;51.960;8.372;2023-08-31T04:41:50;15.70;99.90
20288;DHT22;10303;51.960;8.372;2023-08-31T04:44:16;15.70;99.90
20288;DHT22;10303;51.960;8.372;2023-08-31T04:46:42;15.70;99.90
20288;DHT22;10303;51.960;8.372;2023-08-31T04:49:08;15.70;99.90
20288;DHT22;10303;51.960;8.372;2023-08-31T04:51:35;15.70;99.90
20288;DHT22;10303;51.960;8.372;2023-08-31T04:54:05;15.70;99.90
20288;DHT22;10303;51.960;8.372;2023-08-31T04:56:32;15.70;99.90
20288;DHT22;10303;51.960;8.372;2023-08-31T04:58:59;15.70;99.90
20288;DHT22;10303;51.960;8.372;2023-08-31T05:01:26;15.70;99.90
20288;DHT22;10303;51.960;8.372;2023-08-31T05:03:52;15.70;99.90
20288;DHT22;10303;51.960;8.372;2023-08-31T05:06:18;15.70;99.90
20288;DHT22;10303;51.960;8.372;2023-08-31T05:08:44;15.70;99.90
20288;DHT22;10303;51.960;8.372;2023-08-31T05:11:10;15.70;99.90
20288;DHT22;10303;51.960;8.372;2023-08-31T05:13:36;15.70;99.90
20288;DHT22;10303;51.960;8.372;2023-08-31T05:16:03;15.70;99.90
20288;DHT22;10303;51.960;8.372;2023-08-31T05:18:29;15.70;99.90
20288;DHT22;10303;51.960;8.372;2023-08-31T05:20:55;15.70;99.90
20288;DHT22;10303;51.960;8.372;2023-08-31T05:23:21;15.70;99.90
20288;DHT22;10303;51.960;8.372;2023-08-31T05:25:47;15.70;99.90
20288;DHT22;10303;51.960;8.372;2023-08-31T05:28:13;15.70;99.90
20288;DHT22;10303;51.960;8.372;2023-08-31T05:30:52;15.70;99.90
20288;DHT22;10303;51.960;8.372;2023-08-31T05:33:20;15.70;99.90
20288;DHT22;10303;51.960;8.372;2023-08-31T05:35:51;15.70;99.90
20288;DHT22;10303;51.960;8.372;2023-08-31T05:38:17;15.80;99.90
20288;DHT22;10303;51.960;8.372;2023-08-31T05:40:43;15.80;99.90
20288;DHT22;10303;51.960;8.372;2023-08-31T05:43:12;15.70;99.90
20288;DHT22;10303;51.960;8.372;2023-08-31T05:45:39;15.80;99.90
20288;DHT22;10303;51.960;8.372;2023-08-31T05:48:05;15.80;99.90
20288;DHT22;10303;51.960;8.372;2023-08-31T05:50:32;15.80;99.90
20288;DHT22;10303;51.960;8.372;2023-08-31T05:52:58;15.80;99.90
20288;DHT22;10303;51.960;8.372;2023-08-31T05:55:24;15.80;99.90
20288;DHT22;10303;51.960;8.372;2023-08-31T05:57:50;15.80;99.90
20288;DHT22;10303;51.960;8.372;2023-08-31T06:00:17;15.80;99.90
20288;DHT22;10303;51.960;8.372;2023-08-31T06:02:44;15.90;99.90
20288;DHT22;10303;51.960;8.372;2023-08-31T06:05:13;15.90;99.90
20288;DHT22;10303;51.960;8.372;2023-08-31T06:07:42;15.90;99.90
20288;DHT22;10303;51.960;8.372;2023-08-31T06:10:09;15.90;99.90
20288;DHT22;10303;51.960;8.372;2023-08-31T06:12:35;15.90;99.90
20288;DHT22;10303;51.960;8.372;2023-08-31T06:15:02;15.90;99.90
20288;DHT22;10303;51.960;8.372;2023-08-31T06:17:29;15.90;99.90
20288;DHT22;10303;51.960;8.372;2023-08-31T06:19:55;16.00;99.90
20288;DHT22;10303;51.960;8.372;2023-08-31T06:22:21;16.00;99.90
20288;DHT22;10303;51.960;8.372;2023-08-31T06:24:50;16.00;99.90
20288;DHT22;10303;51.960;8.372;2023-08-31T06:27:17;16.00;99.90
20288;DHT22;10303;51.960;8.372;2023-08-31T06:29:44;16.00;99.90
20288;DHT22;10303;51.960;8.372;2023-08-31T06:32:10;16.10;99.90
20288;DHT22;10303;51.960;8.372;2023-08-31T06:34:36;16.10;99.90
20288;DHT22;10303;51.960;8.372;2023-08-31T06:37:02;16.20;99.90
20288;DHT22;10303;51.960;8.372;2023-08-31T06:39:29;16.20;99.90
20288;DHT22;10303;51.960;8.372;2023-08-31T06:41:55;16.20;99.90
20288;DHT22;10303;51.960;8.372;2023-08-31T06:44:29;16.30;99.90
20288;DHT22;10303;51.960;8.372;2023-08-31T06:46:56;16.30;99.90
20288;DHT22;10303;51.960;8.372;2023-08-31T06:49:23;16.30;99.90
20288;DHT22;10303;51.960;8.372;2023-08-31T06:51:49;16.40;99.90
20288;DHT22;10303;51.960;8.372;2023-08-31T06:54:15;16.50;99.90
20288;DHT22;10303;51.960;8.372;2023-08-31T06:56:42;16.50;99.90
20288;DHT22;10303;51.960;8.372;2023-08-31T06:59:08;16.50;99.90
20288;DHT22;10303;51.960;8.372;2023-08-31T07:01:34;16.60;99.90
20288;DHT22;10303;51.960;8.372;2023-08-31T07:04:00;16.60;99.90
20288;DHT22;10303;51.960;8.372;2023-08-31T07:06:26;16.60;99.90
20288;DHT22;10303;51.960;8.372;2023-08-31T07:08:52;16.70;99.90
20288;DHT22;10303;51.960;8.372;2023-08-31T07:11:18;16.70;99.90
20288;DHT22;10303;51.960;8.372;2023-08-31T07:13:44;16.80;99.90
20288;DHT22;10303;51.960;8.372;2023-08-31T07:16:10;16.80;99.90
20288;DHT22;10303;51.960;8.372;2023-08-31T07:18:36;16.80;99.90
20288;DHT22;10303;51.960;8.372;2023-08-31T07:21:04;16.90;99.90
20288;DHT22;10303;51.960;8.372;2023-08-31T07:23:30;16.90;99.90
20288;DHT22;10303;51.960;8.372;2023-08-31T07:25:57;16.90;99.90
20288;DHT22;10303;51.960;8.372;2023-08-31T07:28:26;16.90;99.90
20288;DHT22;10303;51.960;8.372;2023-08-31T07:31:06;16.90;99.90
20288;DHT22;10303;51.960;8.372;2023-08-31T07:33:33;17.00;99.90
20288;DHT22;10303;51.960;8.372;2023-08-31T07:36:05;17.00;99.90
20288;DHT22;10303;51.960;8.372;2023-08-31T07:38:32;17.10;99.90
20288;DHT22;10303;51.960;8.372;2023-08-31T07:41:00;17.10;99.90
20288;DHT22;10303;51.960;8.372;2023-08-31T07:43:26;17.10;99.90
20288;DHT22;10303;51.960;8.372;2023-08-31T07:45:53;17.10;99.90
20288;DHT22;10303;51.960;8.372;2023-08-31T07:48:19;17.10;99.90
20288;DHT22;10303;51.960;8.372;2023-08-31T07:50:46;17.10;99.90
20288;DHT22;10303;51.960;8.372;2023-08-31T07:53:12;17.10;99.90
20288;DHT22;10303;51.960;8.372;2023-08-31T07:55:39;17.20;99.90
20288;DHT22;10303;51.960;8.372;2023-08-31T07:58:05;17.10;99.90
20288;DHT22;10303;51.960;8.372;2023-08-31T08:00:31;17.20;99.90
20288;DHT22;10303;51.960;8.372;2023-08-31T08:02:58;17.20;99.90
20288;DHT22;10303;51.960;8.372;2023-08-31T08:05:24;17.20;99.90
20288;DHT22;10303;51.960;8.372;2023-08-31T08:07:50;17.20;99.90
20288;DHT22;10303;51.960;8.372;2023-08-31T08:10:16;17.20;99.90
20288;DHT22;10303;51.960;8.372;2023-08-31T08:12:42;17.20;99.90
20288;DHT22;10303;51.960;8.372;2023-08-31T08:15:12;17.20;99.90
20288;DHT22;10303;51.960;8.372;2023-08-31T08:17:38;17.30;99.90
20288;DHT22;10303;51.960;8.372;2023-08-31T08:20:07;17.30;99.90
20288;DHT22;10303;51.960;8.372;2023-08-31T08:22:33;17.40;99.90
20288;DHT22;10303;51.960;8.372;2023-08-31T08:25:00;17.40;99.90
20288;DHT22;10303;51.960;8.372;2023-08-31T08:27:26;17.40;99.90
20288;DHT22;10303;51.960;8.372;2023-08-31T08:29:52;17.40;99.90
20288;DHT22;10303;51.960;8.372;2023-08-31T08:32:18;17.50;99.90
20288;DHT22;10303;51.960;8.372;2023-08-31T08:34:44;17.60;99.90
20288;DHT22;10303;51.960;8.372;2023-08-31T08:37:10;17.60;99.90
20288;DHT22;10303;51.960;8.372;2023-08-31T08:39:36;17.60;99.90
20288;DHT22;10303;51.960;8.372;2023-08-31T08:42:04;17.70;99.90
20288;DHT22;10303;51.960;8.372;2023-08-31T08:44:32;17.70;99.90
20288;DHT22;10303;51.960;8.372;2023-08-31T08:47:01;17.80;99.90
20288;DHT22;10303;51.960;8.372;2023-08-31T08:49:32;17.80;99.90
20288;DHT22;10303;51.960;8.372;2023-08-31T08:52:01;17.80;99.90
20288;DHT22;10303;51.960;8.372;2023-08-31T08:54:28;17.80;99.90
20288;DHT22;10303;51.960;8.372;2023-08-31T08:56:54;17.80;99.90
20288;DHT22;10303;51.960;8.372;2023-08-31T08:59:20;17.80;99.90
20288;DHT22;10303;51.960;8.372;2023-08-31T09:01:46;17.90;99.90
20288;DHT22;10303;51.960;8.372;2023-08-31T09:04:12;17.90;99.90
20288;DHT22;10303;51.960;8.372;2023-08-31T09:06:39;18.00;99.90
20288;DHT22;10303;51.960;8.372;2023-08-31T09:09:08;18.10;99.90
20288;DHT22;10303;51.960;8.372;2023-08-31T09:11:35;18.10;99.90
20288;DHT22;10303;51.960;8.372;2023-08-31T09:14:14;18.20;99.90
20288;DHT22;10303;51.960;8.372;2023-08-31T09:16:48;18.20;99.90
20288;DHT22;10303;51.960;8.372;2023-08-31T09:19:23;18.30;99.90
20288;DHT22;10303;51.960;8.372;2023-08-31T09:21:51;18.30;99.90
20288;DHT22;10303;51.960;8.372;2023-08-31T09:24:18;18.40;99.90
20288;DHT22;10303;51.960;8.372;2023-08-31T09:26:50;18.40;99.90
20288;DHT22;10303;51.960;8.372;2023-08-31T09:29:19;18.50;99.90
20288;DHT22;10303;51.960;8.372;2023-08-31T09:31:45;18.60;99.90
20288;DHT22;10303;51.960;8.372;2023-08-31T09:34:14;18.70;99.90
20288;DHT22;10303;51.960;8.372;2023-08-31T09:36:41;18.90;99.90
20288;DHT22;10303;51.960;8.372;2023-08-31T09:39:08;18.90;99.90
20288;DHT22;10303;51.960;8.372;2023-08-31T09:41:35;18.80;99.90
20288;DHT22;10303;51.960;8.372;2023-08-31T09:44:18;18.70;99.90
20288;DHT22;10303;51.960;8.372;2023-08-31T09:46:45;18.90;99.90
20288;DHT22;10303;51.960;8.372;2023-08-31T09:49:14;19.00;99.90
20288;DHT22;10303;51.960;8.372;2023-08-31T09:51:44;18.90;99.90
20288;DHT22;10303;51.960;8.372;2023-08-31T09:54:21;19.00;99.90
20288;DHT22;10303;51.960;8.372;2023-08-31T09:56:48;19.10;99.90
20288;DHT22;10303;51.960;8.372;2023-08-31T09:59:16;19.10;99.90
20288;DHT22;10303;51.960;8.372;2023-08-31T10:01:45;19.20;99.90
20288;DHT22;10303;51.960;8.372;2023-08-31T10:04:15;19.10;99.90
20288;DHT22;10303;51.960;8.372;2023-08-31T10:06:43;19.10;99.90
20288;DHT22;10303;51.960;8.372;2023-08-31T10:09:09;19.30;99.90
20288;DHT22;10303;51.960;8.372;2023-08-31T10:11:35;19.30;99.90
20288;DHT22;10303;51.960;8.372;2023-08-31T10:14:04;19.40;99.90
20288;DHT22;10303;51.960;8.372;2023-08-31T10:16:30;19.40;99.90
20288;DHT22;10303;51.960;8.372;2023-08-31T10:18:58;19.50;99.90
20288;DHT22;10303;51.960;8.372;2023-08-31T10:21:25;19.40;99.90
20288;DHT22;10303;51.960;8.372;2023-08-31T10:23:51;19.50;99.90
20288;DHT22;10303;51.960;8.372;2023-08-31T10:26:28;19.50;99.90
20288;DHT22;10303;51.960;8.372;2023-08-31T10:28:57;19.50;99.90
20288;DHT22;10303;51.960;8.372;2023-08-31T10:31:29;19.70;99.90
20288;DHT22;10303;51.960;8.372;2023-08-31T10:33:56;19.50;99.90
20288;DHT22;10303;51.960;8.372;2023-08-31T10:36:45;19.70;99.90
20288;DHT22;10303;51.960;8.372;2023-08-31T10:39:13;19.90;99.90
20288;DHT22;10303;51.960;8.372;2023-08-31T10:41:55;19.80;99.90
20288;DHT22;10303;51.960;8.372;2023-08-31T10:44:23;19.80;99.90
20288;DHT22;10303;51.960;8.372;2023-08-31T10:46:51;19.50;99.90
20288;DHT22;10303;51.960;8.372;2023-08-31T10:49:23;19.40;99.90
20288;DHT22;10303;51.960;8.372;2023-08-31T10:51:55;19.30;99.90
20288;DHT22;10303;51.960;8.372;2023-08-31T10:54:26;19.40;99.90
20288;DHT22;10303;51.960;8.372;2023-08-31T10:59:25;19.20;99.90
20288;DHT22;10303;51.960;8.372;2023-08-31T11:01:52;19.10;99.90
20288;DHT22;10303;51.960;8.372;2023-08-31T11:04:23;19.10;99.90
20288;DHT22;10303;51.960;8.372;2023-08-31T11:09:44;19.50;99.90
20288;DHT22;10303;51.960;8.372;2023-08-31T11:12:11;19.80;99.90
20288;DHT22;10303;51.960;8.372;2023-08-31T11:14:38;20.20;99.90
20288;DHT22;10303;51.960;8.372;2023-08-31T11:17:05;20.50;99.90
20288;DHT22;10303;51.960;8.372;2023-08-31T11:19:32;20.60;99.90
20288;DHT22;10303;51.960;8.372;2023-08-31T11:22:00;20.80;99.90
20288;DHT22;10303;51.960;8.372;2023-08-31T11:24:30;21.00;99.90
20288;DHT22;10303;51.960;8.372;2023-08-31T11:26:57;20.80;99.90
20288;DHT22;10303;51.960;8.372;2023-08-31T11:29:24;20.80;99.90
20288;DHT22;10303;51.960;8.372;2023-08-31T11:31:50;20.80;99.90
20288;DHT22;10303;51.960;8.372;2023-08-31T11:34:17;20.90;99.90
20288;DHT22;10303;51.960;8.372;2023-08-31T11:36:46;20.90;99.90
20288;DHT22;10303;51.960;8.372;2023-08-31T11:39:12;20.70;99.90
20288;DHT22;10303;51.960;8.372;2023-08-31T11:41:39;20.70;99.90
20288;DHT22;10303;51.960;8.372;2023-08-31T11:44:08;20.80;99.90
20288;DHT22;10303;51.960;8.372;2023-08-31T11:46:39;20.80;99.90
20288;DHT22;10303;51.960;8.372;2023-08-31T11:49:08;21.00;99.90
20288;DHT22;10303;51.960;8.372;2023-08-31T11:51:34;21.00;99.90
20288;DHT22;10303;51.960;8.372;2023-08-31T11:54:02;21.20;99.90
20288;DHT22;10303;51.960;8.372;2023-08-31T11:56:45;21.30;99.90
20288;DHT22;10303;51.960;8.372;2023-08-31T11:59:18;21.40;99.90
20288;DHT22;10303;51.960;8.372;2023-08-31T12:01:49;21.50;99.90
20288;DHT22;10303;51.960;8.372;2023-08-31T12:04:20;21.70;99.90
20288;DHT22;10303;51.960;8.372;2023-08-31T12:06:51;21.80;99.90
20288;DHT22;10303;51.960;8.372;2023-08-31T12:09:18;21.50;99.90
20288;DHT22;10303;51.960;8.372;2023-08-31T12:11:52;21.50;99.90
20288;DHT22;10303;51.960;8.372;2023-08-31T12:14:25;21.20;99.90
20288;DHT22;10303;51.960;8.372;2023-08-31T12:17:00;21.20;99.90
20288;DHT22;10303;51.960;8.372;2023-08-31T12:19:31;21.30;99.90
20288;DHT22;10303;51.960;8.372;2023-08-31T12:21:59;21.40;99.90
20288;DHT22;10303;51.960;8.372;2023-08-31T12:24:25;21.70;99.90
20288;DHT22;10303;51.960;8.372;2023-08-31T12:26:51;21.90;99.90
20288;DHT22;10303;51.960;8.372;2023-08-31T12:29:21;21.90;99.90
20288;DHT22;10303;51.960;8.372;2023-08-31T12:31:48;21.90;99.90
20288;DHT22;10303;51.960;8.372;2023-08-31T12:34:16;21.70;99.90
20288;DHT22;10303;51.960;8.372;2023-08-31T12:36:42;21.70;99.90
20288;DHT22;10303;51.960;8.372;2023-08-31T12:39:08;21.50;99.90
20288;DHT22;10303;51.960;8.372;2023-08-31T12:41:39;21.70;99.90
20288;DHT22;10303;51.960;8.372;2023-08-31T12:44:06;22.00;99.90
20288;DHT22;10303;51.960;8.372;2023-08-31T12:46:33;22.20;99.90
20288;DHT22;10303;51.960;8.372;2023-08-31T12:49:00;22.20;99.90
20288;DHT22;10303;51.960;8.372;2023-08-31T12:51:28;22.20;99.90
20288;DHT22;10303;51.960;8.372;2023-08-31T12:53:57;21.80;99.90
20288;DHT22;10303;51.960;8.372;2023-08-31T12:56:24;22.00;99.90
20288;DHT22;10303;51.960;8.372;2023-08-31T12:58:53;22.20;99.90
20288;DHT22;10303;51.960;8.372;2023-08-31T13:01:21;22.30;99.30
20288;DHT22;10303;51.960;8.372;2023-08-31T13:03:49;22.30;99.90
20288;DHT22;10303;51.960;8.372;2023-08-31T13:06:15;22.40;99.90
20288;DHT22;10303;51.960;8.372;2023-08-31T13:08:44;22.40;98.80
20288;DHT22;10303;51.960;8.372;2023-08-31T13:11:11;22.50;97.90
20288;DHT22;10303;51.960;8.372;2023-08-31T13:13:40;22.20;98.00
20288;DHT22;10303;51.960;8.372;2023-08-31T13:16:06;22.10;97.20
20288;DHT22;10303;51.960;8.372;2023-08-31T13:18:32;22.00;98.50
20288;DHT22;10303;51.960;8.372;2023-08-31T13:20:59;21.90;98.90
20288;DHT22;10303;51.960;8.372;2023-08-31T13:23:25;21.60;98.70
20288;DHT22;10303;51.960;8.372;2023-08-31T13:25:52;21.50;99.40
20288;DHT22;10303;51.960;8.372;2023-08-31T13:28:18;21.50;99.50
20288;DHT22;10303;51.960;8.372;2023-08-31T13:30:45;21.40;99.90
20288;DHT22;10303;51.960;8.372;2023-08-31T13:33:12;21.10;99.90
20288;DHT22;10303;51.960;8.372;2023-08-31T13:35:37;20.90;99.90
20288;DHT22;10303;51.960;8.372;2023-08-31T13:38:03;20.70;99.90
20288;DHT22;10303;51.960;8.372;2023-08-31T13:40:30;20.00;99.90
20288;DHT22;10303;51.960;8.372;2023-08-31T13:42:57;20.00;99.90
20288;DHT22;10303;51.960;8.372;2023-08-31T13:45:29;19.70;99.90
20288;DHT22;10303;51.960;8.372;2023-08-31T13:47:59;19.30;99.90
20288;DHT22;10303;51.960;8.372;2023-08-31T13:50:26;19.30;99.90
20288;DHT22;10303;51.960;8.372;2023-08-31T13:52:53;19.20;99.90
20288;DHT22;10303;51.960;8.372;2023-08-31T13:55:19;19.10;99.90
20288;DHT22;10303;51.960;8.372;2023-08-31T13:57:46;19.10;99.90
20288;DHT22;10303;51.960;8.372;2023-08-31T14:00:12;19.00;99.90
20288;DHT22;10303;51.960;8.372;2023-08-31T14:02:39;18.90;99.90
20288;DHT22;10303;51.960;8.372;2023-08-31T14:05:06;18.90;99.90
20288;DHT22;10303;51.960;8.372;2023-08-31T14:07:32;18.80;99.90
20288;DHT22;10303;51.960;8.372;2023-08-31T14:09:58;18.90;99.90
20288;DHT22;10303;51.960;8.372;2023-08-31T14:12:24;18.90;99.90
20288;DHT22;10303;51.960;8.372;2023-08-31T14:14:51;18.90;99.90
20288;DHT22;10303;51.960;8.372;2023-08-31T14:17:19;18.90;99.90
20288;DHT22;10303;51.960;8.372;2023-08-31T14:19:46;19.00;99.90
20288;DHT22;10303;51.960;8.372;2023-08-31T14:22:12;19.00;99.90
20288;DHT22;10303;51.960;8.372;2023-08-31T14:24:38;19.10;99.90
20288;DHT22;10303;51.960;8.372;2023-08-31T14:27:04;19.10;99.90
20288;DHT22;10303;51.960;8.372;2023-08-31T14:29:30;19.10;99.90
20288;DHT22;10303;51.960;8.372;2023-08-31T14:31:58;19.20;99.90
20288;DHT22;10303;51.960;8.372;2023-08-31T14:34:23;19.20;99.90
20288;DHT22;10303;51.960;8.372;2023-08-31T14:36:50;19.30;99.90
20288;DHT22;10303;51.960;8.372;2023-08-31T14:39:17;19.30;99.90
20288;DHT22;10303;51.960;8.372;2023-08-31T14:41:43;19.40;99.90
20288;DHT22;10303;51.960;8.372;2023-08-31T14:44:09;19.50;99.90
20288;DHT22;10303;51.960;8.372;2023-08-31T14:46:35;19.50;99.90
20288;DHT22;10303;51.960;8.372;2023-08-31T14:49:01;19.60;99.90
20288;DHT22;10303;51.960;8.372;2023-08-31T14:51:27;19.70;99.90
20288;DHT22;10303;51.960;8.372;2023-08-31T14:53:53;19.70;99.90
20288;DHT22;10303;51.960;8.372;2023-08-31T14:56:19;19.80;99.90
20288;DHT22;10303;51.960;8.372;2023-08-31T14:58:45;19.90;99.90
20288;DHT22;10303;51.960;8.372;2023-08-31T15:01:11;19.90;99.90
20288;DHT22;10303;51.960;8.372;2023-08-31T15:03:38;20.00;99.90
20288;DHT22;10303;51.960;8.372;2023-08-31T15:06:04;20.10;99.90
20288;DHT22;10303;51.960;8.372;2023-08-31T15:08:40;20.10;99.90
20288;DHT22;10303;51.960;8.372;2023-08-31T15:11:07;20.10;99.90
20288;DHT22;10303;51.960;8.372;2023-08-31T15:13:34;20.10;99.90
20288;DHT22;10303;51.960;8.372;2023-08-31T15:16:00;20.20;99.90
20288;DHT22;10303;51.960;8.372;2023-08-31T15:18:28;20.20;99.90
20288;DHT22;10303;51.960;8.372;2023-08-31T15:20:56;20.30;99.90
20288;DHT22;10303;51.960;8.372;2023-08-31T15:23:22;20.30;99.90
20288;DHT22;10303;51.960;8.372;2023-08-31T15:25:49;20.40;99.90
20288;DHT22;10303;51.960;8.372;2023-08-31T15:28:15;20.40;99.90
20288;DHT22;10303;51.960;8.372;2023-08-31T15:30:46;20.50;99.90
20288;DHT22;10303;51.960;8.372;2023-08-31T15:33:12;20.50;99.90
20288;DHT22;10303;51.960;8.372;2023-08-31T15:35:39;20.50;99.90
20288;DHT22;10303;51.960;8.372;2023-08-31T15:38:05;20.50;99.90
20288;DHT22;10303;51.960;8.372;2023-08-31T15:40:31;20.50;99.90
20288;DHT22;10303;51.960;8.372;2023-08-31T15:42:57;20.50;99.90
20288;DHT22;10303;51.960;8.372;2023-08-31T15:45:23;20.60;99.90
20288;DHT22;10303;51.960;8.372;2023-08-31T15:47:49;20.60;99.90